createdAt,value
2019-02-03T00:00:33.929Z,3.58
2019-02-03T00:03:05.513Z,3.62
2019-02-03T00:05:39.470Z,3.62
2019-02-03T00:08:13.307Z,3.87
2019-02-03T00:10:48.199Z,3.88
2019-02-03T00:13:22.579Z,3.92
2019-02-03T00:15:55.609Z,4.00
2019-02-03T00:18:27.163Z,4.01
2019-02-03T00:20:59.383Z,4.02
2019-02-03T00:23:35.177Z,4.01
2019-02-03T00:26:07.887Z,4.01
2019-02-03T00:28:39.107Z,3.95
2019-02-03T00:31:13.020Z,4.05
2019-02-03T00:33:47.950Z,3.99
2019-02-03T00:36:21.694Z,4.15
2019-02-03T00:38:55.621Z,3.99
2019-02-03T00:41:27.388Z,3.99
2019-02-03T00:43:59.493Z,4.05
2019-02-03T00:46:30.765Z,4.04
2019-02-03T00:49:04.056Z,3.93
2019-02-03T00:51:35.629Z,3.87
2019-02-03T00:54:09.757Z,3.85
2019-02-03T00:56:43.968Z,3.87
2019-02-03T00:59:17.573Z,3.88
2019-02-03T01:01:52.265Z,3.90
2019-02-03T01:04:27.218Z,3.98
2019-02-03T01:07:00.479Z,3.94
2019-02-03T01:09:33.989Z,3.84
2019-02-03T01:12:05.650Z,3.99
2019-02-03T01:14:39.639Z,3.90
2019-02-03T01:17:12.649Z,3.93
2019-02-03T01:19:43.876Z,3.91
2019-02-03T01:22:17.692Z,3.89
2019-02-03T01:24:51.655Z,3.82
2019-02-03T01:27:24.555Z,3.73
2019-02-03T01:29:59.495Z,3.71
2019-02-03T01:32:33.511Z,3.59
2019-02-03T01:35:07.166Z,3.65
2019-02-03T01:37:41.887Z,3.80
2019-02-03T01:40:15.842Z,3.74
2019-02-03T01:42:49.257Z,3.67
2019-02-03T01:45:23.160Z,3.61
2019-02-03T01:47:54.383Z,3.54
2019-02-03T01:50:27.441Z,3.60
2019-02-03T01:53:00.763Z,3.59
2019-02-03T01:55:35.500Z,3.55
2019-02-03T01:58:06.790Z,3.50
2019-02-03T02:00:38.200Z,3.66
2019-02-03T02:03:12.026Z,3.57
2019-02-03T02:05:46.175Z,3.45
2019-02-03T02:08:19.936Z,3.48
2019-02-03T02:10:54.299Z,3.54
2019-02-03T02:13:27.412Z,3.52
2019-02-03T02:15:58.836Z,3.56
2019-02-03T02:18:31.233Z,3.49
2019-02-03T02:21:05.044Z,3.40
2019-02-03T02:23:36.967Z,3.44
2019-02-03T02:26:08.947Z,3.38
2019-02-03T02:28:41.053Z,3.37
2019-02-03T02:31:13.855Z,3.45
2019-02-03T02:33:46.434Z,3.59
2019-02-03T02:36:17.849Z,3.47
2019-02-03T02:38:50.785Z,3.40
2019-02-03T02:41:24.254Z,3.56
2019-02-03T02:43:58.411Z,3.55
2019-02-03T02:46:31.507Z,3.42
2019-02-03T02:49:03.498Z,3.40
2019-02-03T02:51:37.230Z,3.40
2019-02-03T02:54:10.029Z,3.25
2019-02-03T02:56:43.759Z,3.35
2019-02-03T02:59:16.118Z,3.39
2019-02-03T03:01:51.263Z,3.27
2019-02-03T03:04:23.975Z,3.20
2019-02-03T03:06:59.829Z,3.12
2019-02-03T03:09:31.112Z,3.18
2019-02-03T03:12:04.188Z,3.32
2019-02-03T03:14:37.426Z,3.33
2019-02-03T03:17:11.894Z,3.22
2019-02-03T03:19:44.764Z,3.23
2019-02-03T03:22:18.178Z,3.25
2019-02-03T03:24:53.935Z,3.30
2019-02-03T03:27:27.320Z,3.31
2019-02-03T03:29:59.216Z,3.37
2019-02-03T03:32:31.719Z,3.34
2019-02-03T03:35:05.748Z,3.18
2019-02-03T03:37:37.023Z,3.18
2019-02-03T03:40:10.951Z,3.18
2019-02-03T03:42:44.378Z,3.17
2019-02-03T03:45:18.378Z,3.26
2019-02-03T03:47:54.019Z,3.26
2019-02-03T03:50:26.169Z,3.16
2019-02-03T03:52:57.769Z,3.16
2019-02-03T03:55:30.614Z,3.40
2019-02-03T03:58:02.819Z,3.24
2019-02-03T04:00:36.537Z,3.31
2019-02-03T04:03:10.367Z,3.29
2019-02-03T04:05:46.149Z,3.32
2019-02-03T04:08:18.346Z,3.37
2019-02-03T04:10:50.219Z,3.37
2019-02-03T04:13:23.410Z,3.48
2019-02-03T04:15:57.841Z,3.59
2019-02-03T04:18:31.673Z,3.61
2019-02-03T04:21:03.780Z,3.66
2019-02-03T04:23:37.598Z,3.61
2019-02-03T04:26:09.524Z,3.55
2019-02-03T04:28:40.824Z,3.64
2019-02-03T04:31:13.640Z,3.61
2019-02-03T04:33:45.454Z,3.69
2019-02-03T04:36:19.470Z,3.74
2019-02-03T04:38:58.286Z,3.69
2019-02-03T04:41:27.592Z,3.73
2019-02-03T04:44:00.601Z,3.68
2019-02-03T04:46:32.685Z,3.75
2019-02-03T04:49:08.365Z,3.59
2019-02-03T04:51:41.663Z,3.66
2019-02-03T04:54:14.709Z,3.72
2019-02-03T04:56:47.673Z,3.33
2019-02-03T04:59:20.641Z,3.45
2019-02-03T05:01:53.112Z,3.49
2019-02-03T05:04:26.647Z,3.53
2019-02-03T05:07:00.553Z,3.56
2019-02-03T05:09:34.555Z,3.42
2019-02-03T05:12:08.621Z,3.45
2019-02-03T05:14:42.593Z,3.56
2019-02-03T05:17:13.863Z,3.51
2019-02-03T05:19:47.643Z,3.47
2019-02-03T05:22:20.619Z,3.51
2019-02-03T05:24:56.382Z,3.52
2019-02-03T05:27:27.703Z,3.45
2019-02-03T05:30:01.170Z,3.33
2019-02-03T05:32:33.772Z,3.37
2019-02-03T05:35:06.157Z,3.31
2019-02-03T05:37:39.988Z,3.21
2019-02-03T05:40:15.724Z,3.27
2019-02-03T05:42:48.338Z,3.26
2019-02-03T05:45:22.237Z,3.21
2019-02-03T05:47:56.055Z,3.29
2019-02-03T05:50:27.888Z,3.20
2019-02-03T05:53:00.864Z,3.00
2019-02-03T05:55:34.755Z,3.11
2019-02-03T05:58:07.846Z,3.21
2019-02-03T06:00:42.276Z,3.30
2019-02-03T06:03:13.979Z,3.15
2019-02-03T06:05:46.000Z,3.10
2019-02-03T06:08:18.140Z,3.22
2019-02-03T06:10:49.716Z,3.22
2019-02-03T06:13:20.976Z,3.18
2019-02-03T06:15:55.264Z,3.20
2019-02-03T06:18:27.736Z,3.28
2019-02-03T06:21:03.312Z,3.21
2019-02-03T06:23:37.425Z,3.26
2019-02-03T06:26:10.400Z,3.17
2019-02-03T06:28:42.056Z,2.90
2019-02-03T06:31:17.459Z,2.96
2019-02-03T06:33:53.323Z,2.90
2019-02-03T06:36:26.302Z,2.83
2019-02-03T06:39:02.597Z,2.92
2019-02-03T06:41:37.147Z,2.91
2019-02-03T06:44:09.123Z,2.88
2019-02-03T06:46:58.166Z,2.88
2019-02-03T06:49:36.632Z,2.95
2019-02-03T06:52:08.289Z,2.90
2019-02-03T06:54:42.244Z,3.10
2019-02-03T06:57:14.325Z,2.97
2019-02-03T06:59:51.072Z,2.96
2019-02-03T07:02:23.075Z,3.00
2019-02-03T07:04:57.675Z,3.15
2019-02-03T07:07:31.250Z,3.19
2019-02-03T07:10:04.488Z,2.95
2019-02-03T07:12:38.372Z,2.93
2019-02-03T07:15:11.545Z,2.92
2019-02-03T07:17:47.105Z,2.98
2019-02-03T07:20:20.024Z,2.90
2019-02-03T07:22:54.521Z,2.64
2019-02-03T07:25:27.238Z,2.65
2019-02-03T07:27:58.500Z,2.52
2019-02-03T07:30:31.447Z,2.36
2019-02-03T07:33:03.530Z,2.49
2019-02-03T07:35:37.181Z,2.47
2019-02-03T07:38:10.790Z,2.51
2019-02-03T07:40:44.648Z,2.43
2019-02-03T07:43:18.315Z,2.33
2019-02-03T07:45:52.725Z,2.55
2019-02-03T07:48:26.325Z,2.63
2019-02-03T07:50:57.903Z,2.41
2019-02-03T07:53:31.423Z,2.40
2019-02-03T07:56:07.120Z,2.20
2019-02-03T07:58:38.421Z,2.11
2019-02-03T08:01:11.378Z,2.20
2019-02-03T08:03:45.032Z,2.06
2019-02-03T08:06:20.026Z,2.12
2019-02-03T08:08:54.552Z,2.05
2019-02-03T08:11:28.038Z,2.00
2019-02-03T08:14:01.569Z,2.02
2019-02-03T08:16:36.189Z,2.00
2019-02-03T08:19:08.707Z,2.04
2019-02-03T08:21:39.992Z,2.04
2019-02-03T08:24:13.617Z,2.08
2019-02-03T08:26:47.539Z,2.16
2019-02-03T08:29:23.009Z,2.04
2019-02-03T08:31:55.516Z,2.26
2019-02-03T08:34:28.259Z,2.11
2019-02-03T08:37:00.095Z,2.29
2019-02-03T08:39:35.437Z,2.21
2019-02-03T08:42:07.626Z,2.26
2019-02-03T08:44:41.357Z,2.38
2019-02-03T08:47:12.568Z,2.38
2019-02-03T08:49:43.834Z,2.45
2019-02-03T08:52:17.696Z,2.40
2019-02-03T08:54:57.981Z,2.29
2019-02-03T08:57:23.690Z,2.25
2019-02-03T08:59:56.706Z,2.24
2019-02-03T09:02:28.446Z,2.13
2019-02-03T09:05:01.896Z,2.15
2019-02-03T09:07:34.800Z,2.02
2019-02-03T09:10:09.001Z,2.15
2019-02-03T09:12:41.131Z,2.26
2019-02-03T09:15:14.936Z,2.41
2019-02-03T09:17:47.146Z,2.43
2019-02-03T09:20:24.630Z,2.52
2019-02-03T09:22:56.814Z,2.57
2019-02-03T09:25:28.498Z,2.68
2019-02-03T09:28:01.761Z,2.73
2019-02-03T09:30:35.441Z,2.81
2019-02-03T09:33:07.083Z,2.75
2019-02-03T09:35:40.878Z,2.82
2019-02-03T09:38:13.985Z,2.94
2019-02-03T09:40:46.301Z,2.92
2019-02-03T09:43:19.937Z,3.07
2019-02-03T09:45:55.462Z,2.98
2019-02-03T09:48:27.742Z,3.13
2019-02-03T09:50:59.044Z,3.03
2019-02-03T09:53:32.182Z,3.08
2019-02-03T09:56:06.154Z,2.69
2019-02-03T09:58:38.891Z,2.79
2019-02-03T10:01:11.077Z,2.75
2019-02-03T10:03:43.186Z,2.91
2019-02-03T10:06:17.791Z,2.87
2019-02-03T10:08:52.173Z,2.95
2019-02-03T10:11:25.644Z,3.04
2019-02-03T10:13:59.167Z,3.13
2019-02-03T10:16:31.280Z,3.11
2019-02-03T10:19:03.335Z,3.16
2019-02-03T10:21:37.009Z,3.15
2019-02-03T10:24:12.749Z,3.18
2019-02-03T10:26:46.776Z,3.16
2019-02-03T10:29:19.159Z,3.06
2019-02-03T10:31:54.677Z,2.87
2019-02-03T10:34:29.595Z,2.72
2019-02-03T10:37:01.293Z,2.78
2019-02-03T10:39:33.086Z,2.79
2019-02-03T10:42:06.279Z,3.04
2019-02-03T10:44:40.083Z,2.96
2019-02-03T10:47:14.090Z,2.91
2019-02-03T10:49:48.395Z,3.07
2019-02-03T10:52:22.310Z,2.94
2019-02-03T10:54:55.899Z,3.03
2019-02-03T10:57:27.175Z,3.06
2019-02-03T11:00:01.208Z,3.12
2019-02-03T11:02:35.935Z,3.17
2019-02-03T11:05:17.208Z,2.98
2019-02-03T11:07:51.228Z,3.12
2019-02-03T11:10:30.719Z,3.15
2019-02-03T11:13:04.228Z,3.06
2019-02-03T11:15:37.369Z,2.95
2019-02-03T11:18:12.907Z,2.88
2019-02-03T11:20:45.403Z,2.81
2019-02-03T11:23:19.377Z,2.86
2019-02-03T11:25:50.658Z,2.81
2019-02-03T11:28:24.397Z,2.84
2019-02-03T11:30:59.220Z,3.07
2019-02-03T11:33:32.842Z,3.15
2019-02-03T11:36:06.560Z,3.13
2019-02-03T11:38:40.340Z,3.00
2019-02-03T11:41:11.674Z,2.86
2019-02-03T11:43:45.375Z,2.84
2019-02-03T11:46:19.320Z,2.65
2019-02-03T11:48:53.801Z,2.60
2019-02-03T11:51:27.438Z,2.59
2019-02-03T11:54:01.132Z,2.46
2019-02-03T11:56:32.392Z,2.36
2019-02-03T11:59:08.117Z,2.22
2019-02-03T12:01:40.492Z,2.06
2019-02-03T12:04:11.711Z,2.34
2019-02-03T12:06:44.660Z,2.37
2019-02-03T12:09:18.767Z,2.40
2019-02-03T12:12:00.795Z,2.50
2019-02-03T12:14:26.443Z,2.54
2019-02-03T12:17:02.189Z,2.38
2019-02-03T12:19:35.644Z,2.33
2019-02-03T12:22:08.644Z,2.15
2019-02-03T12:24:40.681Z,1.93
2019-02-03T12:27:12.052Z,2.07
2019-02-03T12:29:44.534Z,2.08
2019-02-03T12:32:16.180Z,1.93
2019-02-03T12:34:47.574Z,2.03
2019-02-03T12:37:22.224Z,1.98
2019-02-03T12:39:54.803Z,1.93
2019-02-03T12:42:28.244Z,1.91
2019-02-03T12:44:59.716Z,1.98
2019-02-03T12:47:31.941Z,1.91
2019-02-03T12:50:07.110Z,2.02
2019-02-03T12:52:39.099Z,2.02
2019-02-03T12:55:11.597Z,2.07
2019-02-03T12:57:46.553Z,2.18
2019-02-03T13:00:20.027Z,2.12
2019-02-03T13:02:51.662Z,2.06
2019-02-03T13:05:25.955Z,2.02
2019-02-03T13:08:01.021Z,2.14
2019-02-03T13:10:35.011Z,2.14
2019-02-03T13:13:08.414Z,2.29
2019-02-03T13:15:47.261Z,2.02
2019-02-03T13:18:18.488Z,2.09
2019-02-03T13:20:52.471Z,2.09
2019-02-03T13:23:27.193Z,1.99
2019-02-03T13:26:01.118Z,2.02
2019-02-03T13:28:35.749Z,2.10
2019-02-03T13:31:07.292Z,2.07
2019-02-03T13:33:38.638Z,2.25
2019-02-03T13:36:12.019Z,2.12
2019-02-03T13:38:47.641Z,2.23
2019-02-03T13:41:19.929Z,2.43
2019-02-03T13:43:53.959Z,2.39
2019-02-03T13:46:26.937Z,2.49
2019-02-03T13:48:58.724Z,2.33
2019-02-03T13:51:32.008Z,2.37
2019-02-03T13:54:07.573Z,2.09
2019-02-03T13:56:40.112Z,2.07
2019-02-03T13:59:14.046Z,2.00
2019-02-03T14:02:20.339Z,2.12
2019-02-03T14:04:52.100Z,2.20
2019-02-03T14:07:26.081Z,2.08
2019-02-03T14:09:58.898Z,2.19
2019-02-03T14:12:31.742Z,2.01
2019-02-03T14:15:07.280Z,2.02
2019-02-03T14:17:39.068Z,1.92
2019-02-03T14:20:14.101Z,1.86
2019-02-03T14:22:47.223Z,2.00
2019-02-03T14:25:22.059Z,1.98
2019-02-03T14:27:54.612Z,1.92
2019-02-03T14:30:39.862Z,1.89
2019-02-03T14:33:05.534Z,1.84
2019-02-03T14:35:39.352Z,1.94
2019-02-03T14:38:13.126Z,2.06
2019-02-03T14:40:47.322Z,1.85
2019-02-03T14:43:18.703Z,1.91
2019-02-03T14:45:52.302Z,1.94
2019-02-03T14:48:26.351Z,1.84
2019-02-03T14:51:01.854Z,1.60
2019-02-03T14:53:35.256Z,1.60
2019-02-03T14:56:08.188Z,1.63
2019-02-03T14:58:39.608Z,1.69
2019-02-03T15:01:13.340Z,1.62
2019-02-03T15:03:50.606Z,1.62
2019-02-03T15:06:23.269Z,1.64
2019-02-03T15:08:55.333Z,1.64
2019-02-03T15:11:28.447Z,1.53
2019-02-03T15:14:00.513Z,1.61
2019-02-03T15:16:35.569Z,1.48
2019-02-03T15:19:08.973Z,1.61
2019-02-03T15:21:43.287Z,1.56
2019-02-03T15:24:16.617Z,1.39
2019-02-03T15:26:49.286Z,1.45
2019-02-03T15:29:20.721Z,1.45
2019-02-03T15:31:56.211Z,1.36
2019-02-03T15:34:28.616Z,1.39
2019-02-03T15:37:02.601Z,1.51
2019-02-03T15:39:55.307Z,1.50
2019-02-03T15:42:28.610Z,1.43
2019-02-03T15:45:02.586Z,1.44
2019-02-03T15:47:35.530Z,1.46
2019-02-03T15:50:11.301Z,1.44
2019-02-03T15:52:43.441Z,1.42
2019-02-03T15:55:26.075Z,1.37
2019-02-03T15:57:58.191Z,1.37
2019-02-03T16:00:37.619Z,1.29
2019-02-03T16:03:12.936Z,1.26
2019-02-03T16:05:45.522Z,1.16
2019-02-03T16:08:20.284Z,1.25
2019-02-03T16:10:53.526Z,1.22
2019-02-03T16:13:36.742Z,1.24
2019-02-03T16:16:06.469Z,0.70
2019-02-03T16:18:38.411Z,1.32
2019-02-03T16:21:09.738Z,1.34
2019-02-03T16:23:44.547Z,1.13
2019-02-03T16:26:17.931Z,0.71
2019-02-03T16:28:51.043Z,1.08
2019-02-03T16:31:24.774Z,1.21
2019-02-03T16:33:59.357Z,1.17
2019-02-03T16:36:32.888Z,0.99
2019-02-03T16:39:08.545Z,1.04
2019-02-03T16:41:40.889Z,1.09
2019-02-03T16:44:14.874Z,1.06
2019-02-03T16:46:48.899Z,0.95
2019-02-03T16:49:20.520Z,1.04
2019-02-03T16:51:54.768Z,0.97
2019-02-03T16:54:27.733Z,0.95
2019-02-03T16:56:59.035Z,0.88
2019-02-03T16:59:33.612Z,0.68
2019-02-03T17:02:06.893Z,0.68
2019-02-03T17:04:42.403Z,0.82
2019-02-03T17:07:17.564Z,0.82
2019-02-03T17:09:54.334Z,0.87
2019-02-03T17:12:28.467Z,0.82
2019-02-03T17:14:59.832Z,0.81
2019-02-03T17:17:31.700Z,0.85
2019-02-03T17:20:05.566Z,0.82
2019-02-03T17:22:39.044Z,0.80
2019-02-03T17:25:17.094Z,0.80
2019-02-03T17:27:49.337Z,0.86
2019-02-03T17:30:20.684Z,0.84
2019-02-03T17:32:54.298Z,0.84
2019-02-03T17:35:28.487Z,0.85
2019-02-03T17:38:03.822Z,0.62
2019-02-03T17:40:39.758Z,0.68
2019-02-03T17:43:13.070Z,0.64
2019-02-03T17:45:44.590Z,0.69
2019-02-03T17:48:18.423Z,0.93
2019-02-03T17:50:54.053Z,0.88
2019-02-03T17:53:26.452Z,0.96
2019-02-03T17:56:00.182Z,0.74
2019-02-03T17:58:31.448Z,0.87
2019-02-03T18:01:05.441Z,0.83
2019-02-03T18:03:40.270Z,0.76
2019-02-03T18:06:14.938Z,0.68
2019-02-03T18:08:49.889Z,0.71
2019-02-03T18:11:21.159Z,0.81
2019-02-03T18:13:53.752Z,0.60
2019-02-03T18:16:26.292Z,0.43
2019-02-03T18:19:01.180Z,0.46
2019-02-03T18:21:34.411Z,0.49
2019-02-03T18:24:08.306Z,0.46
2019-02-03T18:26:42.296Z,0.55
2019-02-03T18:29:26.749Z,0.59
2019-02-03T18:31:59.220Z,0.51
2019-02-03T18:34:30.532Z,0.55
2019-02-03T18:37:04.354Z,0.55
2019-02-03T18:39:36.245Z,0.55
2019-02-03T18:42:09.736Z,0.61
2019-02-03T18:44:43.316Z,0.51
2019-02-03T18:47:16.417Z,0.41
2019-02-03T18:49:58.251Z,0.33
2019-02-03T18:52:29.576Z,0.29
2019-02-03T18:55:02.787Z,0.41
2019-02-03T18:57:35.540Z,0.35
2019-02-03T19:00:13.856Z,0.35
2019-02-03T19:02:46.693Z,0.40
2019-02-03T19:05:22.139Z,0.46
2019-02-03T19:07:55.542Z,0.51
2019-02-03T19:10:27.695Z,0.47
2019-02-03T19:12:59.273Z,0.41
2019-02-03T19:15:31.887Z,0.41
2019-02-03T19:18:04.702Z,0.34
2019-02-03T19:20:39.698Z,0.51
2019-02-03T19:23:15.276Z,0.31
2019-02-03T19:25:49.582Z,0.35
2019-02-03T19:28:20.973Z,0.39
2019-02-03T19:30:55.405Z,0.31
2019-02-03T19:33:28.874Z,0.41
2019-02-03T19:36:02.586Z,0.28
2019-02-03T19:38:36.628Z,0.29
2019-02-03T19:41:10.654Z,0.43
2019-02-03T19:43:44.570Z,0.52
2019-02-03T19:46:19.868Z,0.40
2019-02-03T19:48:55.526Z,0.58
2019-02-03T19:51:29.515Z,0.51
2019-02-03T19:54:02.571Z,0.45
2019-02-03T19:56:36.327Z,0.64
2019-02-03T19:59:08.262Z,0.57
2019-02-03T20:01:41.787Z,0.57
2019-02-03T20:04:17.361Z,0.63
2019-02-03T20:06:49.801Z,0.60
2019-02-03T20:09:21.097Z,0.44
2019-02-03T20:11:54.719Z,0.47
2019-02-03T20:14:26.920Z,0.45
2019-02-03T20:16:59.747Z,0.58
2019-02-03T20:19:32.817Z,0.52
2019-02-03T20:22:04.669Z,0.45
2019-02-03T20:24:38.781Z,0.42
2019-02-03T20:27:12.711Z,0.22
2019-02-03T20:29:44.075Z,0.26
2019-02-03T20:32:15.602Z,0.34
2019-02-03T20:34:48.834Z,0.22
2019-02-03T20:37:24.348Z,0.30
2019-02-03T20:40:02.218Z,0.30
2019-02-03T20:42:31.782Z,0.13
2019-02-03T20:45:05.803Z,0.10
2019-02-03T20:47:38.707Z,0.11
2019-02-03T20:50:15.369Z,0.09
2019-02-03T20:52:48.620Z,0.15
2019-02-03T20:55:22.352Z,0.18
2019-02-03T20:57:54.942Z,0.10
2019-02-03T21:00:28.344Z,0.14
2019-02-03T21:02:59.898Z,0.25
2019-02-03T21:05:32.206Z,0.15
2019-02-03T21:08:05.305Z,0.13
2019-02-03T21:10:38.849Z,0.15
2019-02-03T21:13:12.892Z,0.16
2019-02-03T21:15:46.912Z,0.15
2019-02-03T21:18:20.934Z,0.06
2019-02-03T21:20:56.646Z,0.05
2019-02-03T21:23:29.149Z,0.18
2019-02-03T21:26:03.468Z,0.13
2019-02-03T21:28:35.099Z,0.16
2019-02-03T21:31:07.006Z,0.03
2019-02-03T21:33:38.413Z,0.14
2019-02-03T21:36:09.614Z,0.18
2019-02-03T21:38:42.947Z,0.15
2019-02-03T21:41:18.636Z,0.13
2019-02-03T21:43:52.507Z,0.21
2019-02-03T21:46:25.553Z,0.19
2019-02-03T21:48:59.253Z,0.00
2019-02-03T21:51:30.471Z,0.05
2019-02-03T21:54:05.817Z,0.05
2019-02-03T21:56:38.177Z,0.00
2019-02-03T21:59:09.393Z,-0.02
2019-02-03T22:01:43.135Z,0.08
2019-02-03T22:04:17.231Z,0.09
2019-02-03T22:06:51.249Z,0.05
2019-02-03T22:09:25.245Z,0.06
2019-02-03T22:11:58.268Z,0.09
2019-02-03T22:14:29.770Z,-0.11
2019-02-03T22:17:03.831Z,-0.01
2019-02-03T22:23:11.619Z,-0.06
2019-02-03T22:25:42.828Z,-0.09
2019-02-03T22:28:16.489Z,0.02
2019-02-03T22:30:50.201Z,0.00
2019-02-03T22:33:23.187Z,0.00
2019-02-03T22:35:55.278Z,-0.03
2019-02-03T22:38:28.958Z,0.06
2019-02-03T22:41:01.396Z,0.06
2019-02-03T22:43:34.705Z,0.05
2019-02-03T22:46:08.832Z,0.02
2019-02-03T22:48:44.027Z,0.05
2019-02-03T22:51:20.104Z,0.11
2019-02-03T22:53:52.893Z,0.00
2019-02-03T22:56:24.567Z,0.01
2019-02-03T22:58:58.702Z,0.03
2019-02-03T23:01:34.447Z,0.05
2019-02-03T23:04:12.308Z,-0.10
2019-02-03T23:06:45.586Z,-0.11
2019-02-03T23:09:29.109Z,-0.02
2019-02-03T23:12:04.326Z,0.03
2019-02-03T23:14:36.166Z,0.08
2019-02-03T23:17:08.508Z,0.06
2019-02-03T23:19:41.674Z,-0.02
2019-02-03T23:22:15.503Z,0.12
2019-02-03T23:24:46.718Z,0.16
2019-02-03T23:27:20.666Z,0.23
2019-02-03T23:29:51.987Z,0.02
2019-02-03T23:32:25.617Z,-0.05
2019-02-03T23:35:00.008Z,0.05
2019-02-03T23:37:32.565Z,0.03
2019-02-03T23:40:05.923Z,0.11
2019-02-03T23:42:39.465Z,0.17
2019-02-03T23:45:11.738Z,0.06
2019-02-03T23:47:43.118Z,0.04
2019-02-03T23:50:18.587Z,0.00
2019-02-03T23:52:50.648Z,-0.03
2019-02-03T23:55:24.644Z,0.03
2019-02-03T23:57:58.776Z,0.07
